sensor_id;sensor_type;location;lat;lon;timestamp;pressure;altitude;pressure_sealevel;temperature;humidity
72024;BME280;59889;50.700;5.440;2022-07-29T00:01:01;100016.04;;;28.93;25.45
72024;BME280;59889;50.700;5.440;2022-07-29T00:03:27;100015.54;;;28.67;25.46
72024;BME280;59889;50.700;5.440;2022-07-29T00:05:53;100008.20;;;28.60;25.52
72024;BME280;59889;50.700;5.440;2022-07-29T00:08:19;100001.11;;;28.96;25.42
72024;BME280;59889;50.700;5.440;2022-07-29T00:10:44;99998.30;;;28.72;25.41
72024;BME280;59889;50.700;5.440;2022-07-29T00:13:10;99997.47;;;28.72;25.40
72024;BME280;59889;50.700;5.440;2022-07-29T00:15:36;99990.27;;;28.61;25.49
72024;BME280;59889;50.700;5.440;2022-07-29T00:18:03;99990.44;;;28.75;25.37
72024;BME280;59889;50.700;5.440;2022-07-29T00:20:28;99989.27;;;28.70;25.42
72024;BME280;59889;50.700;5.440;2022-07-29T00:22:54;99988.02;;;28.89;25.47
72024;BME280;59889;50.700;5.440;2022-07-29T00:25:20;99984.87;;;28.94;25.42
72024;BME280;59889;50.700;5.440;2022-07-29T00:27:45;99981.76;;;28.95;25.40
72024;BME280;59889;50.700;5.440;2022-07-29T00:30:12;99979.95;;;28.92;25.43
72024;BME280;59889;50.700;5.440;2022-07-29T00:32:37;99982.25;;;28.65;25.46
72024;BME280;59889;50.700;5.440;2022-07-29T00:35:04;99979.96;;;28.60;25.50
72024;BME280;59889;50.700;5.440;2022-07-29T00:37:29;99980.58;;;28.91;25.44
72024;BME280;59889;50.700;5.440;2022-07-29T00:39:55;99980.17;;;28.70;25.42
72024;BME280;59889;50.700;5.440;2022-07-29T00:42:20;99978.76;;;28.91;25.44
72024;BME280;59889;50.700;5.440;2022-07-29T00:44:46;99975.48;;;28.89;25.46
72024;BME280;59889;50.700;5.440;2022-07-29T00:47:13;99969.95;;;28.62;25.49
72024;BME280;59889;50.700;5.440;2022-07-29T00:49:39;99967.17;;;28.82;25.52
72024;BME280;59889;50.700;5.440;2022-07-29T00:52:05;99969.86;;;28.82;25.52
72024;BME280;59889;50.700;5.440;2022-07-29T00:54:30;99975.12;;;28.58;25.52
72024;BME280;59889;50.700;5.440;2022-07-29T00:56:57;99980.46;;;28.58;25.52
72024;BME280;59889;50.700;5.440;2022-07-29T00:59:21;99990.06;;;28.77;25.56
72024;BME280;59889;50.700;5.440;2022-07-29T01:01:48;99996.44;;;28.90;25.44
72024;BME280;59889;50.700;5.440;2022-07-29T01:04:13;100002.62;;;28.86;25.47
72024;BME280;59889;50.700;5.440;2022-07-29T01:06:39;100008.18;;;28.85;25.46
72024;BME280;59889;50.700;5.440;2022-07-29T01:09:05;100008.16;;;28.56;25.50
72024;BME280;59889;50.700;5.440;2022-07-29T01:11:31;100007.29;;;28.78;25.50
72024;BME280;59889;50.700;5.440;2022-07-29T01:13:57;99998.33;;;28.78;25.49
72024;BME280;59889;50.700;5.440;2022-07-29T01:16:27;99996.24;;;28.73;25.54
72024;BME280;59889;50.700;5.440;2022-07-29T01:18:52;99986.57;;;28.79;25.47
72024;BME280;59889;50.700;5.440;2022-07-29T01:21:38;99981.85;;;28.85;25.43
72024;BME280;59889;50.700;5.440;2022-07-29T01:23:53;99980.90;;;28.55;25.48
72024;BME280;59889;50.700;5.440;2022-07-29T01:26:22;99979.07;;;28.89;25.40
72024;BME280;59889;50.700;5.440;2022-07-29T01:28:39;99976.28;;;28.54;25.49
72024;BME280;59889;50.700;5.440;2022-07-29T01:30:59;99974.65;;;28.84;25.42
72024;BME280;59889;50.700;5.440;2022-07-29T01:33:25;99970.23;;;28.76;25.51
72024;BME280;59889;50.700;5.440;2022-07-29T01:35:49;99965.62;;;28.76;25.50
72024;BME280;59889;50.700;5.440;2022-07-29T01:38:18;99962.48;;;28.77;25.49
72024;BME280;59889;50.700;5.440;2022-07-29T01:40:45;99961.77;;;28.80;25.46
72024;BME280;59889;50.700;5.440;2022-07-29T01:43:10;99956.39;;;28.56;25.45
72024;BME280;59889;50.700;5.440;2022-07-29T01:45:34;99953.61;;;28.81;25.44
72024;BME280;59889;50.700;5.440;2022-07-29T01:48:00;99951.29;;;28.86;25.41
72024;BME280;59889;50.700;5.440;2022-07-29T01:50:28;99953.44;;;28.56;25.46
72024;BME280;59889;50.700;5.440;2022-07-29T01:52:54;99955.57;;;28.77;25.48
72024;BME280;59889;50.700;5.440;2022-07-29T01:55:16;99964.58;;;28.58;25.45
72024;BME280;59889;50.700;5.440;2022-07-29T01:57:43;99967.87;;;28.56;25.46
72024;BME280;59889;50.700;5.440;2022-07-29T02:00:06;99966.70;;;28.82;25.43
72024;BME280;59889;50.700;5.440;2022-07-29T02:02:32;99960.04;;;28.85;25.39
72024;BME280;59889;50.700;5.440;2022-07-29T02:04:58;99960.33;;;28.72;25.50
72024;BME280;59889;50.700;5.440;2022-07-29T02:07:25;99954.79;;;28.72;25.52
72024;BME280;59889;50.700;5.440;2022-07-29T02:09:50;99951.19;;;28.84;25.40
72024;BME280;59889;50.700;5.440;2022-07-29T02:12:16;99951.97;;;28.57;25.43
72024;BME280;59889;50.700;5.440;2022-07-29T02:14:44;99947.83;;;28.75;25.47
72024;BME280;59889;50.700;5.440;2022-07-29T02:17:07;99952.75;;;28.56;25.44
72024;BME280;59889;50.700;5.440;2022-07-29T02:19:34;99954.31;;;28.76;25.47
72024;BME280;59889;50.700;5.440;2022-07-29T02:22:00;99956.76;;;28.77;25.46
72024;BME280;59889;50.700;5.440;2022-07-29T02:24:25;99956.83;;;28.68;25.53
72024;BME280;59889;50.700;5.440;2022-07-29T02:26:52;99952.16;;;28.77;25.46
72024;BME280;59889;50.700;5.440;2022-07-29T02:29:16;99948.23;;;28.80;25.42
72024;BME280;59889;50.700;5.440;2022-07-29T02:31:43;99945.06;;;28.74;25.47
72024;BME280;59889;50.700;5.440;2022-07-29T02:34:09;99945.48;;;28.42;25.55
72024;BME280;59889;50.700;5.440;2022-07-29T02:36:34;99947.81;;;28.72;25.50
72024;BME280;59889;50.700;5.440;2022-07-29T02:39:00;99947.06;;;28.70;25.51
72024;BME280;59889;50.700;5.440;2022-07-29T02:41:29;99947.81;;;28.69;25.52
72024;BME280;59889;50.700;5.440;2022-07-29T02:43:55;99947.52;;;28.70;25.49
72024;BME280;59889;50.700;5.440;2022-07-29T02:46:19;99947.11;;;28.78;25.43
72024;BME280;59889;50.700;5.440;2022-07-29T02:48:48;99948.62;;;28.67;25.52
72024;BME280;59889;50.700;5.440;2022-07-29T02:51:13;99946.24;;;28.71;25.49
72024;BME280;59889;50.700;5.440;2022-07-29T02:53:34;99949.49;;;28.75;25.44
72024;BME280;59889;50.700;5.440;2022-07-29T02:56:02;99951.33;;;28.72;25.47
72024;BME280;59889;50.700;5.440;2022-07-29T02:58:27;99954.03;;;28.72;25.46
72024;BME280;59889;50.700;5.440;2022-07-29T03:00:51;99949.07;;;28.64;25.53
72024;BME280;59889;50.700;5.440;2022-07-29T03:03:18;99946.31;;;28.70;25.47
72024;BME280;59889;50.700;5.440;2022-07-29T03:05:43;99941.12;;;28.64;25.52
72024;BME280;59889;50.700;5.440;2022-07-29T03:08:10;99939.39;;;28.64;25.53
72024;BME280;59889;50.700;5.440;2022-07-29T03:10:34;99939.79;;;28.43;25.50
72024;BME280;59889;50.700;5.440;2022-07-29T03:13:01;99938.93;;;28.71;25.46
72024;BME280;59889;50.700;5.440;2022-07-29T03:15:27;99938.24;;;28.51;25.43
72024;BME280;59889;50.700;5.440;2022-07-29T03:17:52;99938.82;;;28.48;25.45
72024;BME280;59889;50.700;5.440;2022-07-29T03:20:18;99943.31;;;28.66;25.51
72024;BME280;59889;50.700;5.440;2022-07-29T03:22:44;99939.89;;;28.44;25.49
72024;BME280;59889;50.700;5.440;2022-07-29T03:25:10;99941.02;;;28.73;25.44
72024;BME280;59889;50.700;5.440;2022-07-29T03:27:35;99942.23;;;28.64;25.53
72024;BME280;59889;50.700;5.440;2022-07-29T03:30:01;99942.88;;;28.64;25.52
72024;BME280;59889;50.700;5.440;2022-07-29T03:32:27;99944.51;;;28.31;25.60
72024;BME280;59889;50.700;5.440;2022-07-29T03:34:53;99942.50;;;28.60;25.55
72024;BME280;59889;50.700;5.440;2022-07-29T03:37:18;99942.04;;;28.38;25.54
72024;BME280;59889;50.700;5.440;2022-07-29T03:39:45;99944.07;;;28.08;25.58
72024;BME280;59889;50.700;5.440;2022-07-29T03:42:12;99943.23;;;28.68;25.48
72024;BME280;59889;50.700;5.440;2022-07-29T03:44:37;99944.13;;;28.55;25.58
72024;BME280;59889;50.700;5.440;2022-07-29T03:47:04;99944.18;;;28.64;25.49
72024;BME280;59889;50.700;5.440;2022-07-29T03:49:29;99942.88;;;28.36;25.53
72024;BME280;59889;50.700;5.440;2022-07-29T03:51:55;99939.17;;;28.62;25.50
72024;BME280;59889;50.700;5.440;2022-07-29T03:54:20;99934.70;;;28.68;25.43
72024;BME280;59889;50.700;5.440;2022-07-29T03:56:48;99932.71;;;28.39;25.48
72024;BME280;59889;50.700;5.440;2022-07-29T03:59:12;99930.53;;;28.63;25.48
72024;BME280;59889;50.700;5.440;2022-07-29T04:01:38;99930.24;;;28.61;25.49
72024;BME280;59889;50.700;5.440;2022-07-29T04:04:03;99931.56;;;28.60;25.49
72024;BME280;59889;50.700;5.440;2022-07-29T04:06:30;99934.11;;;28.62;25.48
72024;BME280;59889;50.700;5.440;2022-07-29T04:08:55;99935.06;;;28.62;25.49
72024;BME280;59889;50.700;5.440;2022-07-29T04:11:20;99934.15;;;28.62;25.48
72024;BME280;59889;50.700;5.440;2022-07-29T04:13:46;99935.71;;;28.61;25.49
72024;BME280;59889;50.700;5.440;2022-07-29T04:16:13;99935.68;;;28.60;25.50
72024;BME280;59889;50.700;5.440;2022-07-29T04:18:43;99937.33;;;28.30;25.57
72024;BME280;59889;50.700;5.440;2022-07-29T04:21:04;99935.34;;;28.38;25.49
72024;BME280;59889;50.700;5.440;2022-07-29T04:23:30;99933.15;;;28.54;25.54
72024;BME280;59889;50.700;5.440;2022-07-29T04:25:56;99932.29;;;28.60;25.51
72024;BME280;59889;50.700;5.440;2022-07-29T04:28:21;99938.28;;;28.44;25.64
72024;BME280;59889;50.700;5.440;2022-07-29T04:30:47;99947.17;;;28.56;25.53
72024;BME280;59889;50.700;5.440;2022-07-29T04:33:13;99951.35;;;28.60;25.49
72024;BME280;59889;50.700;5.440;2022-07-29T04:35:39;99955.89;;;28.45;25.62
72024;BME280;59889;50.700;5.440;2022-07-29T04:38:06;99960.91;;;28.55;25.53
72024;BME280;59889;50.700;5.440;2022-07-29T04:40:31;99962.99;;;28.61;25.48
72024;BME280;59889;50.700;5.440;2022-07-29T04:42:57;99968.87;;;28.46;25.61
72024;BME280;59889;50.700;5.440;2022-07-29T04:45:23;99976.50;;;28.29;25.53
72024;BME280;59889;50.700;5.440;2022-07-29T04:47:49;99982.04;;;28.18;25.63
72024;BME280;59889;50.700;5.440;2022-07-29T04:50:14;99983.45;;;28.53;25.53
72024;BME280;59889;50.700;5.440;2022-07-29T04:52:40;99984.47;;;28.54;25.53
72024;BME280;59889;50.700;5.440;2022-07-29T04:55:06;99988.46;;;28.56;25.51
72024;BME280;59889;50.700;5.440;2022-07-29T04:57:32;99989.54;;;28.54;25.53
72024;BME280;59889;50.700;5.440;2022-07-29T04:59:58;99996.82;;;28.45;25.62
72024;BME280;59889;50.700;5.440;2022-07-29T05:02:23;100002.52;;;28.49;25.58
72024;BME280;59889;50.700;5.440;2022-07-29T05:04:49;100005.94;;;28.43;25.63
72024;BME280;59889;50.700;5.440;2022-07-29T05:07:15;100001.46;;;28.45;25.62
72024;BME280;59889;50.700;5.440;2022-07-29T05:09:41;99994.16;;;28.51;25.55
72024;BME280;59889;50.700;5.440;2022-07-29T05:12:07;99993.88;;;28.43;25.62
72024;BME280;59889;50.700;5.440;2022-07-29T05:14:33;99998.66;;;28.38;25.67
72024;BME280;59889;50.700;5.440;2022-07-29T05:16:59;99999.75;;;28.51;25.56
72024;BME280;59889;50.700;5.440;2022-07-29T05:19:24;99997.10;;;28.37;25.67
72024;BME280;59889;50.700;5.440;2022-07-29T05:21:50;99998.92;;;28.22;25.60
72024;BME280;59889;50.700;5.440;2022-07-29T05:24:16;99998.21;;;28.38;25.66
72024;BME280;59889;50.700;5.440;2022-07-29T05:26:42;99996.82;;;28.44;25.60
72024;BME280;59889;50.700;5.440;2022-07-29T05:29:08;99997.90;;;28.44;25.60
72024;BME280;59889;50.700;5.440;2022-07-29T05:31:34;99996.05;;;28.48;25.57
72024;BME280;59889;50.700;5.440;2022-07-29T05:34:00;99994.59;;;28.39;25.65
72024;BME280;59889;50.700;5.440;2022-07-29T05:36:26;99997.83;;;28.44;25.60
72024;BME280;59889;50.700;5.440;2022-07-29T05:38:51;100003.92;;;28.47;25.57
72024;BME280;59889;50.700;5.440;2022-07-29T05:41:17;100012.88;;;28.51;25.53
72024;BME280;59889;50.700;5.440;2022-07-29T05:43:43;100016.07;;;28.41;25.61
72024;BME280;59889;50.700;5.440;2022-07-29T05:46:09;100015.92;;;28.43;25.60
72024;BME280;59889;50.700;5.440;2022-07-29T05:48:35;100011.00;;;28.47;25.58
72024;BME280;59889;50.700;5.440;2022-07-29T05:51:01;100008.28;;;28.47;25.57
72024;BME280;59889;50.700;5.440;2022-07-29T05:53:27;100007.74;;;28.34;25.68
72024;BME280;59889;50.700;5.440;2022-07-29T05:55:53;100012.34;;;28.37;25.66
72024;BME280;59889;50.700;5.440;2022-07-29T05:58:18;100013.62;;;28.45;25.59
72024;BME280;59889;50.700;5.440;2022-07-29T06:00:45;100012.72;;;28.43;25.61
72024;BME280;59889;50.700;5.440;2022-07-29T06:03:10;100012.90;;;28.23;25.57
72024;BME280;59889;50.700;5.440;2022-07-29T06:05:36;100015.60;;;28.36;25.67
72024;BME280;59889;50.700;5.440;2022-07-29T06:08:02;100019.12;;;28.32;25.71
72024;BME280;59889;50.700;5.440;2022-07-29T06:10:28;100024.18;;;28.45;25.59
72024;BME280;59889;50.700;5.440;2022-07-29T06:12:53;100025.89;;;28.47;25.57
72024;BME280;59889;50.700;5.440;2022-07-29T06:15:19;100023.46;;;28.35;25.68
72024;BME280;59889;50.700;5.440;2022-07-29T06:17:45;100026.42;;;28.24;25.56
72024;BME280;59889;50.700;5.440;2022-07-29T06:20:11;100028.56;;;28.47;25.57
72024;BME280;59889;50.700;5.440;2022-07-29T06:22:37;100028.27;;;28.45;25.58
72024;BME280;59889;50.700;5.440;2022-07-29T06:25:03;100025.52;;;28.44;25.60
72024;BME280;59889;50.700;5.440;2022-07-29T06:27:30;100021.35;;;28.43;25.61
72024;BME280;59889;50.700;5.440;2022-07-29T06:29:56;100024.97;;;28.48;25.57
72024;BME280;59889;50.700;5.440;2022-07-29T06:32:20;100028.20;;;28.50;25.55
72024;BME280;59889;50.700;5.440;2022-07-29T06:34:46;100031.89;;;28.50;25.54
72024;BME280;59889;50.700;5.440;2022-07-29T06:37:12;100032.96;;;28.46;25.57
72024;BME280;59889;50.700;5.440;2022-07-29T06:39:38;100030.95;;;28.23;25.56
72024;BME280;59889;50.700;5.440;2022-07-29T06:42:04;100028.13;;;28.50;25.54
72024;BME280;59889;50.700;5.440;2022-07-29T06:44:30;100027.28;;;28.51;25.54
72024;BME280;59889;50.700;5.440;2022-07-29T06:46:55;100031.05;;;28.54;25.51
72024;BME280;59889;50.700;5.440;2022-07-29T06:49:21;100031.97;;;28.44;25.60
72024;BME280;59889;50.700;5.440;2022-07-29T06:51:47;100031.52;;;28.47;25.58
72024;BME280;59889;50.700;5.440;2022-07-29T06:54:13;100033.41;;;28.53;25.53
72024;BME280;59889;50.700;5.440;2022-07-29T06:56:39;100036.68;;;28.40;25.64
72024;BME280;59889;50.700;5.440;2022-07-29T06:59:05;100042.03;;;28.22;25.59
72024;BME280;59889;50.700;5.440;2022-07-29T07:01:30;100038.46;;;28.30;25.53
72024;BME280;59889;50.700;5.440;2022-07-29T07:03:56;100036.87;;;28.53;25.53
72024;BME280;59889;50.700;5.440;2022-07-29T07:06:22;100039.25;;;28.52;25.53
72024;BME280;59889;50.700;5.440;2022-07-29T07:08:48;100042.58;;;28.38;25.47
72024;BME280;59889;50.700;5.440;2022-07-29T07:11:14;100043.08;;;28.81;25.51
72024;BME280;59889;50.700;5.440;2022-07-29T07:13:40;100044.67;;;28.56;25.51
72024;BME280;59889;50.700;5.440;2022-07-29T07:16:06;100045.16;;;28.56;25.53
72024;BME280;59889;50.700;5.440;2022-07-29T07:18:31;100050.93;;;28.63;25.45
72024;BME280;59889;50.700;5.440;2022-07-29T07:20:59;100049.45;;;28.50;25.58
72024;BME280;59889;50.700;5.440;2022-07-29T07:23:22;100053.00;;;28.26;25.58
72024;BME280;59889;50.700;5.440;2022-07-29T07:25:48;100055.21;;;28.29;25.55
72024;BME280;59889;50.700;5.440;2022-07-29T07:28:14;100056.00;;;28.55;25.53
72024;BME280;59889;50.700;5.440;2022-07-29T07:30:40;100057.81;;;28.45;25.63
72024;BME280;59889;50.700;5.440;2022-07-29T07:33:06;100054.33;;;28.43;25.65
72024;BME280;59889;50.700;5.440;2022-07-29T07:35:32;100054.18;;;28.42;25.66
72024;BME280;59889;50.700;5.440;2022-07-29T07:37:57;100052.75;;;28.53;25.57
72024;BME280;59889;50.700;5.440;2022-07-29T07:40:23;100052.16;;;28.63;25.48
72024;BME280;59889;50.700;5.440;2022-07-29T07:42:49;100053.61;;;28.63;25.49
72024;BME280;59889;50.700;5.440;2022-07-29T07:45:15;100057.40;;;28.63;25.51
72024;BME280;59889;50.700;5.440;2022-07-29T07:47:42;100060.99;;;28.68;25.46
72024;BME280;59889;50.700;5.440;2022-07-29T07:50:08;100060.40;;;28.63;25.51
72024;BME280;59889;50.700;5.440;2022-07-29T07:52:33;100064.75;;;28.40;25.50
72024;BME280;59889;50.700;5.440;2022-07-29T07:54:59;100068.32;;;28.51;25.64
72024;BME280;59889;50.700;5.440;2022-07-29T07:57:24;100067.72;;;28.58;25.57
72024;BME280;59889;50.700;5.440;2022-07-29T07:59:50;100065.65;;;28.38;25.54
72024;BME280;59889;50.700;5.440;2022-07-29T08:02:16;100068.30;;;28.75;25.41
72024;BME280;59889;50.700;5.440;2022-07-29T08:04:42;100067.42;;;28.45;25.46
72024;BME280;59889;50.700;5.440;2022-07-29T08:07:08;100071.03;;;28.65;25.51
72024;BME280;59889;50.700;5.440;2022-07-29T08:09:34;100068.09;;;28.79;25.38
72024;BME280;59889;50.700;5.440;2022-07-29T08:12:00;100066.40;;;28.80;25.39
72024;BME280;59889;50.700;5.440;2022-07-29T08:14:25;100066.05;;;28.74;25.45
72024;BME280;59889;50.700;5.440;2022-07-29T08:16:51;100061.20;;;28.77;25.42
72024;BME280;59889;50.700;5.440;2022-07-29T08:19:17;100065.27;;;28.70;25.49
72024;BME280;59889;50.700;5.440;2022-07-29T08:21:43;100065.44;;;28.39;25.56
72024;BME280;59889;50.700;5.440;2022-07-29T08:24:09;100065.70;;;28.37;25.58
72024;BME280;59889;50.700;5.440;2022-07-29T08:26:34;100065.85;;;28.40;25.59
72024;BME280;59889;50.700;5.440;2022-07-29T08:29:00;100076.49;;;28.63;25.57
72024;BME280;59889;50.700;5.440;2022-07-29T08:31:26;100083.96;;;28.71;25.52
72024;BME280;59889;50.700;5.440;2022-07-29T08:33:52;100083.39;;;28.83;25.40
72024;BME280;59889;50.700;5.440;2022-07-29T08:36:18;100083.93;;;28.79;25.44
72024;BME280;59889;50.700;5.440;2022-07-29T08:38:44;100084.75;;;28.62;25.39
72024;BME280;59889;50.700;5.440;2022-07-29T08:41:10;100083.43;;;28.88;25.36
72024;BME280;59889;50.700;5.440;2022-07-29T08:43:36;100080.76;;;28.33;25.44
72024;BME280;59889;50.700;5.440;2022-07-29T08:46:01;100078.63;;;28.86;25.38
72024;BME280;59889;50.700;5.440;2022-07-29T08:48:27;100081.97;;;28.72;25.30
72024;BME280;59889;50.700;5.440;2022-07-29T08:50:55;100085.39;;;29.05;25.23
72024;BME280;59889;50.700;5.440;2022-07-29T08:53:19;100086.47;;;28.98;25.28
72024;BME280;59889;50.700;5.440;2022-07-29T08:55:47;100090.40;;;28.76;25.27
72024;BME280;59889;50.700;5.440;2022-07-29T08:58:11;100091.73;;;28.75;25.29
72024;BME280;59889;50.700;5.440;2022-07-29T09:00:38;100091.84;;;28.54;25.26
72024;BME280;59889;50.700;5.440;2022-07-29T09:03:02;100093.14;;;28.98;25.30
72024;BME280;59889;50.700;5.440;2022-07-29T09:05:27;100093.59;;;28.86;25.19
72024;BME280;59889;50.700;5.440;2022-07-29T09:07:52;100096.67;;;29.05;25.25
72024;BME280;59889;50.700;5.440;2022-07-29T09:10:18;100092.36;;;28.73;25.31
72024;BME280;59889;50.700;5.440;2022-07-29T09:12:44;100094.31;;;29.11;25.20
72024;BME280;59889;50.700;5.440;2022-07-29T09:15:09;100098.11;;;28.60;25.44
72024;BME280;59889;50.700;5.440;2022-07-29T09:17:41;100094.13;;;28.79;25.27
72024;BME280;59889;50.700;5.440;2022-07-29T09:20:09;100094.95;;;28.59;25.25
72024;BME280;59889;50.700;5.440;2022-07-29T09:22:29;100096.50;;;28.82;25.26
72024;BME280;59889;50.700;5.440;2022-07-29T09:24:52;100096.97;;;28.86;25.23
72024;BME280;59889;50.700;5.440;2022-07-29T09:27:20;100098.63;;;28.97;25.35
72024;BME280;59889;50.700;5.440;2022-07-29T09:29:44;100106.09;;;29.07;25.27
72024;BME280;59889;50.700;5.440;2022-07-29T09:32:10;100106.93;;;28.79;25.31
72024;BME280;59889;50.700;5.440;2022-07-29T09:34:36;100108.43;;;28.45;25.40
72024;BME280;59889;50.700;5.440;2022-07-29T09:37:02;100104.49;;;28.79;25.31
72024;BME280;59889;50.700;5.440;2022-07-29T09:39:30;100104.55;;;28.83;25.28
72024;BME280;59889;50.700;5.440;2022-07-29T09:41:55;100110.04;;;28.85;25.27
72024;BME280;59889;50.700;5.440;2022-07-29T09:44:20;100115.48;;;29.01;25.34
72024;BME280;59889;50.700;5.440;2022-07-29T09:46:55;100111.70;;;29.02;25.11
72024;BME280;59889;50.700;5.440;2022-07-29T09:49:12;100106.34;;;29.03;25.11
72024;BME280;59889;50.700;5.440;2022-07-29T09:51:37;100102.04;;;28.77;25.13
72024;BME280;59889;50.700;5.440;2022-07-29T09:56:38;100102.74;;;29.07;25.08
72024;BME280;59889;50.700;5.440;2022-07-29T10:01:27;100103.33;;;28.97;25.19
72024;BME280;59889;50.700;5.440;2022-07-29T10:03:52;100106.50;;;28.90;25.03
72024;BME280;59889;50.700;5.440;2022-07-29T10:06:12;100105.03;;;29.01;25.16
72024;BME280;59889;50.700;5.440;2022-07-29T10:08:38;100108.17;;;29.24;25.18
72024;BME280;59889;50.700;5.440;2022-07-29T10:11:10;100105.62;;;28.77;25.16
72024;BME280;59889;50.700;5.440;2022-07-29T10:13:29;100101.96;;;28.92;25.25
72024;BME280;59889;50.700;5.440;2022-07-29T10:15:55;100100.13;;;28.87;25.29
72024;BME280;59889;50.700;5.440;2022-07-29T10:18:21;100096.69;;;29.02;25.17
72024;BME280;59889;50.700;5.440;2022-07-29T10:20:48;100102.65;;;28.74;25.22
72024;BME280;59889;50.700;5.440;2022-07-29T10:23:13;100104.09;;;28.86;25.33
72024;BME280;59889;50.700;5.440;2022-07-29T10:25:39;100102.68;;;28.94;25.26
72024;BME280;59889;50.700;5.440;2022-07-29T10:28:05;100098.70;;;28.87;25.32
72024;BME280;59889;50.700;5.440;2022-07-29T10:30:30;100098.10;;;29.25;25.21
72024;BME280;59889;50.700;5.440;2022-07-29T10:33:08;100101.94;;;29.12;25.34
72024;BME280;59889;50.700;5.440;2022-07-29T10:35:33;100104.10;;;28.93;25.28
72024;BME280;59889;50.700;5.440;2022-07-29T10:38:07;100105.16;;;29.04;25.18
72024;BME280;59889;50.700;5.440;2022-07-29T10:40:22;100104.20;;;28.96;25.26
72024;BME280;59889;50.700;5.440;2022-07-29T10:42:41;100107.98;;;29.05;25.18
72024;BME280;59889;50.700;5.440;2022-07-29T10:45:06;100106.68;;;29.25;25.23
72024;BME280;59889;50.700;5.440;2022-07-29T10:47:32;100106.35;;;28.83;25.39
72024;BME280;59889;50.700;5.440;2022-07-29T10:49:58;100106.50;;;28.90;25.33
72024;BME280;59889;50.700;5.440;2022-07-29T10:52:23;100104.52;;;28.65;25.34
72024;BME280;59889;50.700;5.440;2022-07-29T10:54:50;100106.47;;;29.08;25.17
72024;BME280;59889;50.700;5.440;2022-07-29T10:57:17;100107.95;;;28.94;25.30
72024;BME280;59889;50.700;5.440;2022-07-29T10:59:41;100105.20;;;28.92;25.34
72024;BME280;59889;50.700;5.440;2022-07-29T11:07:06;100108.85;;;28.93;25.33
72024;BME280;59889;50.700;5.440;2022-07-29T11:09:24;100106.53;;;29.09;25.18
72024;BME280;59889;50.700;5.440;2022-07-29T11:11:50;100112.97;;;29.20;25.29
72024;BME280;59889;50.700;5.440;2022-07-29T11:14:17;100109.92;;;29.06;25.21
72024;BME280;59889;50.700;5.440;2022-07-29T11:16:58;100102.45;;;28.91;25.36
72024;BME280;59889;50.700;5.440;2022-07-29T11:19:19;100102.58;;;28.74;25.29
72024;BME280;59889;50.700;5.440;2022-07-29T11:21:35;100105.13;;;28.78;25.27
72024;BME280;59889;50.700;5.440;2022-07-29T11:26:25;100099.55;;;29.09;25.21
72024;BME280;59889;50.700;5.440;2022-07-29T11:28:58;100098.44;;;29.14;25.17
72024;BME280;59889;50.700;5.440;2022-07-29T11:31:19;100095.79;;;28.83;25.24
72024;BME280;59889;50.700;5.440;2022-07-29T11:33:43;100095.23;;;29.29;25.25
72024;BME280;59889;50.700;5.440;2022-07-29T11:36:10;100096.71;;;28.84;25.22
72024;BME280;59889;50.700;5.440;2022-07-29T11:38:34;100097.55;;;28.72;25.35
72024;BME280;59889;50.700;5.440;2022-07-29T11:45:52;100104.25;;;28.85;25.23
72024;BME280;59889;50.700;5.440;2022-07-29T11:48:18;100104.13;;;29.06;25.26
72024;BME280;59889;50.700;5.440;2022-07-29T11:50:44;100106.32;;;28.69;25.39
72024;BME280;59889;50.700;5.440;2022-07-29T11:53:11;100101.79;;;29.08;25.25
72024;BME280;59889;50.700;5.440;2022-07-29T11:55:37;100096.27;;;29.00;25.34
72024;BME280;59889;50.700;5.440;2022-07-29T11:58:02;100095.51;;;29.23;25.36
72024;BME280;59889;50.700;5.440;2022-07-29T12:00:30;100098.17;;;29.07;25.27
72024;BME280;59889;50.700;5.440;2022-07-29T12:02:54;100096.37;;;29.05;25.30
72024;BME280;59889;50.700;5.440;2022-07-29T12:05:19;100096.94;;;29.06;25.28
72024;BME280;59889;50.700;5.440;2022-07-29T12:07:45;100093.12;;;29.03;25.33
72024;BME280;59889;50.700;5.440;2022-07-29T12:10:11;100096.76;;;29.43;25.18
72024;BME280;59889;50.700;5.440;2022-07-29T12:12:36;100091.58;;;29.06;25.30
72024;BME280;59889;50.700;5.440;2022-07-29T12:15:14;100093.48;;;28.85;25.28
72024;BME280;59889;50.700;5.440;2022-07-29T12:17:29;100094.98;;;29.02;25.36
72024;BME280;59889;50.700;5.440;2022-07-29T12:19:55;100096.15;;;29.02;25.35
72024;BME280;59889;50.700;5.440;2022-07-29T12:22:25;100098.79;;;29.26;25.35
72024;BME280;59889;50.700;5.440;2022-07-29T12:24:45;100098.49;;;28.91;25.25
72024;BME280;59889;50.700;5.440;2022-07-29T12:27:11;100098.02;;;29.11;25.27
72024;BME280;59889;50.700;5.440;2022-07-29T12:29:37;100099.76;;;29.07;25.32
72024;BME280;59889;50.700;5.440;2022-07-29T12:32:04;100101.58;;;28.79;25.37
72024;BME280;59889;50.700;5.440;2022-07-29T12:34:29;100104.22;;;29.17;25.26
72024;BME280;59889;50.700;5.440;2022-07-29T12:36:55;100101.90;;;29.19;25.44
72024;BME280;59889;50.700;5.440;2022-07-29T12:39:21;100105.66;;;28.83;25.35
72024;BME280;59889;50.700;5.440;2022-07-29T12:41:46;100105.96;;;29.03;25.40
72024;BME280;59889;50.700;5.440;2022-07-29T12:44:12;100106.19;;;28.90;25.51
72024;BME280;59889;50.700;5.440;2022-07-29T12:46:38;100101.64;;;29.34;25.34
72024;BME280;59889;50.700;5.440;2022-07-29T12:49:04;100096.62;;;28.98;25.43
72024;BME280;59889;50.700;5.440;2022-07-29T12:51:30;100098.08;;;28.90;25.52
72024;BME280;59889;50.700;5.440;2022-07-29T12:54:02;100098.13;;;29.02;25.43
72024;BME280;59889;50.700;5.440;2022-07-29T12:56:22;100098.84;;;28.96;25.49
72024;BME280;59889;50.700;5.440;2022-07-29T12:58:47;100100.09;;;29.17;25.30
72024;BME280;59889;50.700;5.440;2022-07-29T13:01:15;100104.39;;;29.16;25.31
72024;BME280;59889;50.700;5.440;2022-07-29T13:03:47;100102.63;;;29.09;25.38